sensor_id;sensor_type;location;lat;lon;timestamp;P1;durP1;ratioP1;P2;durP2;ratioP2
31798;SDS011;18374;51.136;3.502;2023-02-26T00:01:42;7.80;;;2.08;;
31798;SDS011;18374;51.136;3.502;2023-02-26T00:04:10;8.90;;;2.25;;
31798;SDS011;18374;51.136;3.502;2023-02-26T00:06:39;6.70;;;1.92;;
31798;SDS011;18374;51.136;3.502;2023-02-26T00:09:23;8.30;;;2.08;;
31798;SDS011;18374;51.136;3.502;2023-02-26T00:11:51;8.23;;;1.70;;
31798;SDS011;18374;51.136;3.502;2023-02-26T00:14:19;12.63;;;1.98;;
31798;SDS011;18374;51.136;3.502;2023-02-26T00:17:31;4.22;;;1.83;;
31798;SDS011;18374;51.136;3.502;2023-02-26T00:20:04;5.38;;;1.80;;
31798;SDS011;18374;51.136;3.502;2023-02-26T00:22:34;5.30;;;1.40;;
31798;SDS011;18374;51.136;3.502;2023-02-26T00:25:02;6.15;;;1.73;;
31798;SDS011;18374;51.136;3.502;2023-02-26T00:27:30;6.03;;;1.85;;
31798;SDS011;18374;51.136;3.502;2023-02-26T00:29:58;8.43;;;1.90;;
31798;SDS011;18374;51.136;3.502;2023-02-26T00:32:26;5.40;;;1.60;;
31798;SDS011;18374;51.136;3.502;2023-02-26T00:34:57;5.38;;;1.70;;
31798;SDS011;18374;51.136;3.502;2023-02-26T00:43:16;7.45;;;1.58;;
31798;SDS011;18374;51.136;3.502;2023-02-26T00:52:01;8.30;;;1.50;;
31798;SDS011;18374;51.136;3.502;2023-02-26T00:54:40;6.47;;;1.70;;
31798;SDS011;18374;51.136;3.502;2023-02-26T00:57:07;4.07;;;1.25;;
31798;SDS011;18374;51.136;3.502;2023-02-26T00:59:35;5.88;;;1.23;;
31798;SDS011;18374;51.136;3.502;2023-02-26T01:02:03;3.25;;;1.45;;
31798;SDS011;18374;51.136;3.502;2023-02-26T01:04:31;3.75;;;1.83;;
31798;SDS011;18374;51.136;3.502;2023-02-26T01:06:59;7.05;;;1.50;;
31798;SDS011;18374;51.136;3.502;2023-02-26T01:09:28;3.50;;;1.42;;
31798;SDS011;18374;51.136;3.502;2023-02-26T01:12:06;6.22;;;1.40;;
31798;SDS011;18374;51.136;3.502;2023-02-26T01:14:37;6.13;;;1.45;;
31798;SDS011;18374;51.136;3.502;2023-02-26T01:17:07;7.10;;;1.77;;
31798;SDS011;18374;51.136;3.502;2023-02-26T01:19:43;4.82;;;1.27;;
31798;SDS011;18374;51.136;3.502;2023-02-26T01:22:20;4.18;;;1.65;;
31798;SDS011;18374;51.136;3.502;2023-02-26T01:24:50;2.78;;;0.98;;
31798;SDS011;18374;51.136;3.502;2023-02-26T01:27:30;6.63;;;1.33;;
31798;SDS011;18374;51.136;3.502;2023-02-26T01:29:58;5.22;;;1.10;;
31798;SDS011;18374;51.136;3.502;2023-02-26T01:32:34;2.47;;;1.02;;
31798;SDS011;18374;51.136;3.502;2023-02-26T01:41:17;4.70;;;1.33;;
31798;SDS011;18374;51.136;3.502;2023-02-26T01:49:39;3.65;;;1.27;;
31798;SDS011;18374;51.136;3.502;2023-02-26T01:54:59;2.40;;;1.20;;
31798;SDS011;18374;51.136;3.502;2023-02-26T01:57:27;3.33;;;1.20;;
31798;SDS011;18374;51.136;3.502;2023-02-26T01:59:55;9.57;;;1.83;;
31798;SDS011;18374;51.136;3.502;2023-02-26T02:02:23;3.60;;;1.13;;
31798;SDS011;18374;51.136;3.502;2023-02-26T02:04:51;3.00;;;0.98;;
31798;SDS011;18374;51.136;3.502;2023-02-26T02:07:19;4.68;;;1.10;;
31798;SDS011;18374;51.136;3.502;2023-02-26T02:09:47;3.75;;;1.10;;
31798;SDS011;18374;51.136;3.502;2023-02-26T02:12:25;5.10;;;1.30;;
31798;SDS011;18374;51.136;3.502;2023-02-26T02:18:17;3.80;;;0.98;;
31798;SDS011;18374;51.136;3.502;2023-02-26T02:24:12;5.38;;;1.50;;
31798;SDS011;18374;51.136;3.502;2023-02-26T02:27:15;3.70;;;1.20;;
31798;SDS011;18374;51.136;3.502;2023-02-26T02:30:06;3.85;;;0.98;;
31798;SDS011;18374;51.136;3.502;2023-02-26T02:32:58;4.25;;;1.45;;
31798;SDS011;18374;51.136;3.502;2023-02-26T02:35:36;3.25;;;1.27;;
31798;SDS011;18374;51.136;3.502;2023-02-26T02:40:48;4.45;;;1.38;;
31798;SDS011;18374;51.136;3.502;2023-02-26T02:43:24;4.25;;;1.83;;
31798;SDS011;18374;51.136;3.502;2023-02-26T02:45:59;10.57;;;1.63;;
31798;SDS011;18374;51.136;3.502;2023-02-26T02:51:18;15.80;;;1.63;;
31798;SDS011;18374;51.136;3.502;2023-02-26T02:54:01;3.95;;;1.10;;
31798;SDS011;18374;51.136;3.502;2023-02-26T02:56:45;7.03;;;1.23;;
31798;SDS011;18374;51.136;3.502;2023-02-26T02:59:23;7.50;;;1.55;;
31798;SDS011;18374;51.136;3.502;2023-02-26T03:02:01;5.97;;;1.25;;
31798;SDS011;18374;51.136;3.502;2023-02-26T03:04:57;5.63;;;1.30;;
31798;SDS011;18374;51.136;3.502;2023-02-26T03:07:24;8.00;;;1.30;;
31798;SDS011;18374;51.136;3.502;2023-02-26T03:09:52;5.07;;;1.35;;
31798;SDS011;18374;51.136;3.502;2023-02-26T03:12:21;5.25;;;1.33;;
31798;SDS011;18374;51.136;3.502;2023-02-26T03:14:49;7.75;;;2.00;;
31798;SDS011;18374;51.136;3.502;2023-02-26T03:20:40;2.15;;;0.82;;
31798;SDS011;18374;51.136;3.502;2023-02-26T03:23:27;2.80;;;1.02;;
31798;SDS011;18374;51.136;3.502;2023-02-26T03:26:04;5.65;;;0.98;;
31798;SDS011;18374;51.136;3.502;2023-02-26T03:28:43;3.95;;;1.23;;
31798;SDS011;18374;51.136;3.502;2023-02-26T03:37:22;3.92;;;1.20;;
31798;SDS011;18374;51.136;3.502;2023-02-26T03:40:25;7.70;;;1.17;;
31798;SDS011;18374;51.136;3.502;2023-02-26T03:45:39;4.30;;;0.90;;
31798;SDS011;18374;51.136;3.502;2023-02-26T03:48:12;5.00;;;1.05;;
31798;SDS011;18374;51.136;3.502;2023-02-26T03:50:47;3.13;;;0.88;;
31798;SDS011;18374;51.136;3.502;2023-02-26T03:56:25;0.60;;;0.52;;
31798;SDS011;18374;51.136;3.502;2023-02-26T03:59:17;3.90;;;0.65;;
31798;SDS011;18374;51.136;3.502;2023-02-26T04:02:20;5.28;;;0.82;;
31798;SDS011;18374;51.136;3.502;2023-02-26T04:05:16;6.55;;;1.00;;
31798;SDS011;18374;51.136;3.502;2023-02-26T04:07:47;6.95;;;0.88;;
31798;SDS011;18374;51.136;3.502;2023-02-26T04:10:17;6.18;;;0.95;;
31798;SDS011;18374;51.136;3.502;2023-02-26T04:12:49;4.25;;;0.82;;
31798;SDS011;18374;51.136;3.502;2023-02-26T04:15:17;5.35;;;0.90;;
31798;SDS011;18374;51.136;3.502;2023-02-26T04:17:45;6.97;;;0.52;;
31798;SDS011;18374;51.136;3.502;2023-02-26T04:20:13;3.45;;;1.17;;
31798;SDS011;18374;51.136;3.502;2023-02-26T04:22:41;4.25;;;0.88;;
31798;SDS011;18374;51.136;3.502;2023-02-26T04:25:08;5.45;;;0.70;;
31798;SDS011;18374;51.136;3.502;2023-02-26T04:27:37;5.38;;;0.70;;
31798;SDS011;18374;51.136;3.502;2023-02-26T04:30:06;4.97;;;1.05;;
31798;SDS011;18374;51.136;3.502;2023-02-26T04:32:36;1.45;;;0.52;;
31798;SDS011;18374;51.136;3.502;2023-02-26T04:35:07;4.13;;;0.80;;
31798;SDS011;18374;51.136;3.502;2023-02-26T04:37:35;1.75;;;0.57;;
31798;SDS011;18374;51.136;3.502;2023-02-26T04:40:03;4.78;;;0.90;;
31798;SDS011;18374;51.136;3.502;2023-02-26T04:42:32;1.23;;;0.70;;
31798;SDS011;18374;51.136;3.502;2023-02-26T04:45:00;1.17;;;0.68;;
31798;SDS011;18374;51.136;3.502;2023-02-26T04:47:28;6.70;;;0.95;;
31798;SDS011;18374;51.136;3.502;2023-02-26T04:49:56;3.97;;;0.80;;
31798;SDS011;18374;51.136;3.502;2023-02-26T04:52:26;3.95;;;1.10;;
31798;SDS011;18374;51.136;3.502;2023-02-26T04:54:54;2.15;;;0.80;;
31798;SDS011;18374;51.136;3.502;2023-02-26T04:57:21;1.73;;;0.63;;
31798;SDS011;18374;51.136;3.502;2023-02-26T04:59:50;5.85;;;1.05;;
31798;SDS011;18374;51.136;3.502;2023-02-26T05:02:21;2.08;;;0.68;;
31798;SDS011;18374;51.136;3.502;2023-02-26T05:04:51;8.50;;;1.20;;
31798;SDS011;18374;51.136;3.502;2023-02-26T05:07:19;3.30;;;0.80;;
31798;SDS011;18374;51.136;3.502;2023-02-26T05:09:48;2.53;;;0.70;;
31798;SDS011;18374;51.136;3.502;2023-02-26T05:12:16;5.88;;;0.90;;
31798;SDS011;18374;51.136;3.502;2023-02-26T05:14:44;3.92;;;0.90;;
31798;SDS011;18374;51.136;3.502;2023-02-26T05:17:11;1.33;;;0.57;;
31798;SDS011;18374;51.136;3.502;2023-02-26T05:19:39;6.15;;;1.33;;
31798;SDS011;18374;51.136;3.502;2023-02-26T05:22:07;7.53;;;1.00;;
31798;SDS011;18374;51.136;3.502;2023-02-26T05:24:35;2.50;;;0.82;;
31798;SDS011;18374;51.136;3.502;2023-02-26T05:27:02;3.15;;;0.77;;
31798;SDS011;18374;51.136;3.502;2023-02-26T05:29:31;5.38;;;1.15;;
31798;SDS011;18374;51.136;3.502;2023-02-26T05:32:01;5.35;;;0.80;;
31798;SDS011;18374;51.136;3.502;2023-02-26T05:34:30;3.55;;;0.90;;
31798;SDS011;18374;51.136;3.502;2023-02-26T05:36:57;4.80;;;0.90;;
31798;SDS011;18374;51.136;3.502;2023-02-26T05:39:25;7.10;;;1.00;;
31798;SDS011;18374;51.136;3.502;2023-02-26T05:41:53;3.50;;;0.80;;
31798;SDS011;18374;51.136;3.502;2023-02-26T05:44:21;8.13;;;0.90;;
31798;SDS011;18374;51.136;3.502;2023-02-26T05:46:49;5.95;;;1.05;;
31798;SDS011;18374;51.136;3.502;2023-02-26T05:49:17;3.15;;;0.68;;
31798;SDS011;18374;51.136;3.502;2023-02-26T05:51:45;1.75;;;0.65;;
31798;SDS011;18374;51.136;3.502;2023-02-26T05:54:12;3.78;;;0.82;;
31798;SDS011;18374;51.136;3.502;2023-02-26T05:56:40;9.65;;;1.33;;
31798;SDS011;18374;51.136;3.502;2023-02-26T05:59:08;2.60;;;0.65;;
31798;SDS011;18374;51.136;3.502;2023-02-26T06:01:36;6.15;;;1.00;;
31798;SDS011;18374;51.136;3.502;2023-02-26T06:04:04;3.42;;;0.90;;
31798;SDS011;18374;51.136;3.502;2023-02-26T06:06:32;2.97;;;0.75;;
31798;SDS011;18374;51.136;3.502;2023-02-26T06:09:00;7.68;;;1.05;;
31798;SDS011;18374;51.136;3.502;2023-02-26T06:11:28;4.35;;;0.93;;
31798;SDS011;18374;51.136;3.502;2023-02-26T06:13:59;2.95;;;0.57;;
31798;SDS011;18374;51.136;3.502;2023-02-26T06:16:27;3.10;;;0.70;;
31798;SDS011;18374;51.136;3.502;2023-02-26T06:18:55;3.08;;;0.70;;
31798;SDS011;18374;51.136;3.502;2023-02-26T06:21:23;6.25;;;0.85;;
31798;SDS011;18374;51.136;3.502;2023-02-26T06:23:51;6.10;;;0.70;;
31798;SDS011;18374;51.136;3.502;2023-02-26T06:26:19;2.95;;;0.80;;
31798;SDS011;18374;51.136;3.502;2023-02-26T06:28:49;5.78;;;0.75;;
31798;SDS011;18374;51.136;3.502;2023-02-26T06:31:17;6.38;;;0.90;;
31798;SDS011;18374;51.136;3.502;2023-02-26T06:33:45;5.15;;;0.85;;
31798;SDS011;18374;51.136;3.502;2023-02-26T06:36:13;4.07;;;0.88;;
31798;SDS011;18374;51.136;3.502;2023-02-26T06:38:41;4.50;;;0.55;;
31798;SDS011;18374;51.136;3.502;2023-02-26T06:41:11;3.13;;;0.60;;
31798;SDS011;18374;51.136;3.502;2023-02-26T06:43:39;10.15;;;1.30;;
31798;SDS011;18374;51.136;3.502;2023-02-26T06:46:07;1.98;;;0.80;;
31798;SDS011;18374;51.136;3.502;2023-02-26T06:48:35;3.35;;;0.88;;
31798;SDS011;18374;51.136;3.502;2023-02-26T06:51:02;3.05;;;0.80;;
31798;SDS011;18374;51.136;3.502;2023-02-26T06:53:33;5.22;;;1.00;;
31798;SDS011;18374;51.136;3.502;2023-02-26T06:56:01;6.85;;;0.80;;
31798;SDS011;18374;51.136;3.502;2023-02-26T06:58:29;2.97;;;0.70;;
31798;SDS011;18374;51.136;3.502;2023-02-26T07:00:56;7.63;;;1.00;;
31798;SDS011;18374;51.136;3.502;2023-02-26T07:03:24;3.47;;;0.60;;
31798;SDS011;18374;51.136;3.502;2023-02-26T07:05:52;7.03;;;1.05;;
31798;SDS011;18374;51.136;3.502;2023-02-26T07:08:20;4.07;;;1.02;;
31798;SDS011;18374;51.136;3.502;2023-02-26T07:10:47;5.68;;;0.80;;
31798;SDS011;18374;51.136;3.502;2023-02-26T07:13:16;2.13;;;0.60;;
31798;SDS011;18374;51.136;3.502;2023-02-26T07:15:44;2.63;;;1.00;;
31798;SDS011;18374;51.136;3.502;2023-02-26T07:18:12;7.72;;;0.75;;
31798;SDS011;18374;51.136;3.502;2023-02-26T07:20:40;4.90;;;0.90;;
31798;SDS011;18374;51.136;3.502;2023-02-26T07:23:08;4.15;;;0.80;;
31798;SDS011;18374;51.136;3.502;2023-02-26T07:25:37;4.35;;;0.82;;
31798;SDS011;18374;51.136;3.502;2023-02-26T07:28:05;4.25;;;0.70;;
31798;SDS011;18374;51.136;3.502;2023-02-26T07:30:33;2.35;;;0.82;;
31798;SDS011;18374;51.136;3.502;2023-02-26T07:33:01;5.00;;;1.00;;
31798;SDS011;18374;51.136;3.502;2023-02-26T07:35:29;3.38;;;0.55;;
31798;SDS011;18374;51.136;3.502;2023-02-26T07:37:57;3.45;;;0.73;;
31798;SDS011;18374;51.136;3.502;2023-02-26T07:40:24;5.63;;;0.63;;
31798;SDS011;18374;51.136;3.502;2023-02-26T07:42:52;2.40;;;0.55;;
31798;SDS011;18374;51.136;3.502;2023-02-26T07:45:19;3.60;;;0.98;;
31798;SDS011;18374;51.136;3.502;2023-02-26T07:47:49;2.08;;;0.70;;
31798;SDS011;18374;51.136;3.502;2023-02-26T07:50:18;6.47;;;1.10;;
31798;SDS011;18374;51.136;3.502;2023-02-26T07:52:47;7.00;;;0.80;;
31798;SDS011;18374;51.136;3.502;2023-02-26T07:55:15;4.72;;;0.68;;
31798;SDS011;18374;51.136;3.502;2023-02-26T07:57:42;7.93;;;0.70;;
31798;SDS011;18374;51.136;3.502;2023-02-26T08:00:10;4.15;;;1.00;;
31798;SDS011;18374;51.136;3.502;2023-02-26T08:02:39;4.07;;;0.80;;
31798;SDS011;18374;51.136;3.502;2023-02-26T08:05:07;4.55;;;1.20;;
31798;SDS011;18374;51.136;3.502;2023-02-26T08:07:35;4.10;;;0.47;;
31798;SDS011;18374;51.136;3.502;2023-02-26T08:10:03;3.95;;;0.95;;
31798;SDS011;18374;51.136;3.502;2023-02-26T08:12:32;3.90;;;0.95;;
31798;SDS011;18374;51.136;3.502;2023-02-26T08:14:59;4.22;;;0.65;;
31798;SDS011;18374;51.136;3.502;2023-02-26T08:17:27;2.65;;;0.73;;
31798;SDS011;18374;51.136;3.502;2023-02-26T08:19:55;2.72;;;0.95;;
31798;SDS011;18374;51.136;3.502;2023-02-26T08:22:22;1.58;;;0.70;;
31798;SDS011;18374;51.136;3.502;2023-02-26T08:24:50;1.95;;;0.80;;
31798;SDS011;18374;51.136;3.502;2023-02-26T08:27:18;2.58;;;0.80;;
31798;SDS011;18374;51.136;3.502;2023-02-26T08:29:45;3.42;;;0.90;;
31798;SDS011;18374;51.136;3.502;2023-02-26T08:32:16;5.25;;;0.90;;
31798;SDS011;18374;51.136;3.502;2023-02-26T08:34:45;5.05;;;0.60;;
31798;SDS011;18374;51.136;3.502;2023-02-26T08:37:13;1.15;;;0.43;;
31798;SDS011;18374;51.136;3.502;2023-02-26T08:39:41;1.00;;;0.55;;
31798;SDS011;18374;51.136;3.502;2023-02-26T08:42:09;4.70;;;0.75;;
31798;SDS011;18374;51.136;3.502;2023-02-26T08:44:38;2.15;;;0.52;;
31798;SDS011;18374;51.136;3.502;2023-02-26T08:47:06;1.52;;;0.70;;
31798;SDS011;18374;51.136;3.502;2023-02-26T08:49:34;4.97;;;0.70;;
31798;SDS011;18374;51.136;3.502;2023-02-26T08:52:01;1.08;;;0.50;;
31798;SDS011;18374;51.136;3.502;2023-02-26T08:54:29;5.30;;;0.60;;
31798;SDS011;18374;51.136;3.502;2023-02-26T08:56:58;3.20;;;0.40;;
31798;SDS011;18374;51.136;3.502;2023-02-26T08:59:25;3.58;;;0.70;;
31798;SDS011;18374;51.136;3.502;2023-02-26T09:01:53;2.85;;;0.65;;
31798;SDS011;18374;51.136;3.502;2023-02-26T09:04:21;2.58;;;0.63;;
31798;SDS011;18374;51.136;3.502;2023-02-26T09:06:49;3.92;;;0.73;;
31798;SDS011;18374;51.136;3.502;2023-02-26T09:09:16;6.25;;;0.70;;
31798;SDS011;18374;51.136;3.502;2023-02-26T09:11:45;4.60;;;0.52;;
31798;SDS011;18374;51.136;3.502;2023-02-26T09:14:13;2.33;;;0.60;;
31798;SDS011;18374;51.136;3.502;2023-02-26T09:16:42;2.75;;;0.50;;
31798;SDS011;18374;51.136;3.502;2023-02-26T09:19:10;4.65;;;0.50;;
31798;SDS011;18374;51.136;3.502;2023-02-26T09:21:37;1.33;;;0.38;;
31798;SDS011;18374;51.136;3.502;2023-02-26T09:24:05;1.85;;;0.70;;
31798;SDS011;18374;51.136;3.502;2023-02-26T09:26:33;1.95;;;0.73;;
31798;SDS011;18374;51.136;3.502;2023-02-26T09:29:01;2.55;;;0.93;;
31798;SDS011;18374;51.136;3.502;2023-02-26T09:31:29;4.45;;;0.70;;
31798;SDS011;18374;51.136;3.502;2023-02-26T09:33:57;2.78;;;0.98;;
31798;SDS011;18374;51.136;3.502;2023-02-26T09:36:24;2.00;;;0.70;;
31798;SDS011;18374;51.136;3.502;2023-02-26T09:38:53;6.75;;;0.77;;
31798;SDS011;18374;51.136;3.502;2023-02-26T09:41:31;3.95;;;0.60;;
31798;SDS011;18374;51.136;3.502;2023-02-26T09:49:52;1.20;;;0.40;;
31798;SDS011;18374;51.136;3.502;2023-02-26T09:52:22;2.63;;;0.30;;
31798;SDS011;18374;51.136;3.502;2023-02-26T09:55:04;3.65;;;0.45;;
31798;SDS011;18374;51.136;3.502;2023-02-26T09:57:44;1.17;;;0.40;;
31798;SDS011;18374;51.136;3.502;2023-02-26T10:00:23;3.20;;;0.52;;
31798;SDS011;18374;51.136;3.502;2023-02-26T10:12:35;4.10;;;0.65;;
31798;SDS011;18374;51.136;3.502;2023-02-26T10:15:11;4.18;;;0.65;;
31798;SDS011;18374;51.136;3.502;2023-02-26T10:18:09;1.13;;;0.40;;
31798;SDS011;18374;51.136;3.502;2023-02-26T10:20:59;1.50;;;0.38;;
31798;SDS011;18374;51.136;3.502;2023-02-26T10:23:39;1.92;;;0.43;;
31798;SDS011;18374;51.136;3.502;2023-02-26T10:26:30;4.07;;;0.60;;
31798;SDS011;18374;51.136;3.502;2023-02-26T10:34:56;0.75;;;0.55;;
31798;SDS011;18374;51.136;3.502;2023-02-26T10:37:49;0.35;;;0.28;;
31798;SDS011;18374;51.136;3.502;2023-02-26T10:41:02;2.85;;;0.55;;
31798;SDS011;18374;51.136;3.502;2023-02-26T10:43:31;1.33;;;0.68;;
31798;SDS011;18374;51.136;3.502;2023-02-26T10:52:16;1.20;;;0.52;;
31798;SDS011;18374;51.136;3.502;2023-02-26T10:58:08;2.67;;;0.60;;
31798;SDS011;18374;51.136;3.502;2023-02-26T11:00:41;0.38;;;0.38;;
31798;SDS011;18374;51.136;3.502;2023-02-26T11:03:16;2.65;;;0.40;;
31798;SDS011;18374;51.136;3.502;2023-02-26T11:05:52;3.22;;;0.50;;
31798;SDS011;18374;51.136;3.502;2023-02-26T11:08:26;1.70;;;0.60;;
31798;SDS011;18374;51.136;3.502;2023-02-26T11:11:34;2.80;;;0.50;;
31798;SDS011;18374;51.136;3.502;2023-02-26T11:14:06;3.78;;;0.52;;
31798;SDS011;18374;51.136;3.502;2023-02-26T11:16:34;1.35;;;0.45;;
31798;SDS011;18374;51.136;3.502;2023-02-26T11:19:13;1.42;;;0.40;;
31798;SDS011;18374;51.136;3.502;2023-02-26T11:21:43;1.75;;;0.65;;
31798;SDS011;18374;51.136;3.502;2023-02-26T11:24:15;1.17;;;0.40;;
31798;SDS011;18374;51.136;3.502;2023-02-26T11:26:50;1.30;;;0.65;;
31798;SDS011;18374;51.136;3.502;2023-02-26T11:29:23;1.30;;;0.40;;
31798;SDS011;18374;51.136;3.502;2023-02-26T11:31:53;2.65;;;0.63;;
31798;SDS011;18374;51.136;3.502;2023-02-26T11:34:24;3.03;;;0.60;;
31798;SDS011;18374;51.136;3.502;2023-02-26T11:36:54;2.40;;;0.45;;
31798;SDS011;18374;51.136;3.502;2023-02-26T11:39:25;2.58;;;0.45;;
31798;SDS011;18374;51.136;3.502;2023-02-26T11:41:57;0.55;;;0.28;;
31798;SDS011;18374;51.136;3.502;2023-02-26T11:44:43;0.55;;;0.20;;
31798;SDS011;18374;51.136;3.502;2023-02-26T11:47:20;2.30;;;0.20;;
31798;SDS011;18374;51.136;3.502;2023-02-26T11:49:53;0.82;;;0.30;;
31798;SDS011;18374;51.136;3.502;2023-02-26T11:52:42;0.90;;;0.40;;
31798;SDS011;18374;51.136;3.502;2023-02-26T11:55:20;1.20;;;0.43;;
31798;SDS011;18374;51.136;3.502;2023-02-26T11:57:56;3.00;;;0.43;;
31798;SDS011;18374;51.136;3.502;2023-02-26T12:00:28;1.83;;;0.47;;
31798;SDS011;18374;51.136;3.502;2023-02-26T12:05:34;2.03;;;0.47;;
31798;SDS011;18374;51.136;3.502;2023-02-26T12:08:04;0.63;;;0.43;;
31798;SDS011;18374;51.136;3.502;2023-02-26T12:20:06;2.80;;;0.50;;
31798;SDS011;18374;51.136;3.502;2023-02-26T12:32:14;1.40;;;0.60;;
31798;SDS011;18374;51.136;3.502;2023-02-26T12:34:49;1.40;;;0.60;;
31798;SDS011;18374;51.136;3.502;2023-02-26T12:37:49;1.02;;;0.45;;
31798;SDS011;18374;51.136;3.502;2023-02-26T12:40:26;4.70;;;1.05;;
31798;SDS011;18374;51.136;3.502;2023-02-26T12:46:33;3.95;;;0.88;;
31798;SDS011;18374;51.136;3.502;2023-02-26T12:49:45;3.25;;;0.68;;
31798;SDS011;18374;51.136;3.502;2023-02-26T13:01:23;1.70;;;0.68;;
31798;SDS011;18374;51.136;3.502;2023-02-26T13:16:53;2.65;;;0.68;;
31798;SDS011;18374;51.136;3.502;2023-02-26T13:22:11;3.03;;;0.60;;
31798;SDS011;18374;51.136;3.502;2023-02-26T13:30:57;3.70;;;0.60;;
31798;SDS011;18374;51.136;3.502;2023-02-26T13:33:28;1.83;;;0.63;;
31798;SDS011;18374;51.136;3.502;2023-02-26T13:35:58;1.13;;;0.55;;
31798;SDS011;18374;51.136;3.502;2023-02-26T13:50:52;2.25;;;0.82;;
31798;SDS011;18374;51.136;3.502;2023-02-26T13:53:46;2.15;;;0.68;;
31798;SDS011;18374;51.136;3.502;2023-02-26T14:01:31;3.60;;;0.65;;
31798;SDS011;18374;51.136;3.502;2023-02-26T14:07:44;8.38;;;0.60;;
31798;SDS011;18374;51.136;3.502;2023-02-26T14:09:53;2.95;;;0.77;;
31798;SDS011;18374;51.136;3.502;2023-02-26T14:12:36;2.78;;;0.77;;
31798;SDS011;18374;51.136;3.502;2023-02-26T14:20:16;2.33;;;0.70;;
31798;SDS011;18374;51.136;3.502;2023-02-26T14:22:49;4.60;;;0.90;;
31798;SDS011;18374;51.136;3.502;2023-02-26T14:25:40;3.17;;;1.00;;
31798;SDS011;18374;51.136;3.502;2023-02-26T14:31:04;2.78;;;1.02;;
31798;SDS011;18374;51.136;3.502;2023-02-26T14:33:56;3.28;;;0.77;;
31798;SDS011;18374;51.136;3.502;2023-02-26T14:36:41;1.58;;;0.70;;
31798;SDS011;18374;51.136;3.502;2023-02-26T14:42:01;1.27;;;0.60;;
31798;SDS011;18374;51.136;3.502;2023-02-26T14:44:39;4.32;;;0.93;;
31798;SDS011;18374;51.136;3.502;2023-02-26T14:47:11;0.75;;;0.68;;
31798;SDS011;18374;51.136;3.502;2023-02-26T14:49:40;1.65;;;0.70;;
31798;SDS011;18374;51.136;3.502;2023-02-26T14:58:05;1.92;;;0.70;;
31798;SDS011;18374;51.136;3.502;2023-02-26T15:17:43;1.73;;;0.70;;
31798;SDS011;18374;51.136;3.502;2023-02-26T15:20:47;1.85;;;0.40;;
31798;SDS011;18374;51.136;3.502;2023-02-26T15:23:38;1.23;;;0.45;;
31798;SDS011;18374;51.136;3.502;2023-02-26T15:26:24;1.65;;;0.50;;
31798;SDS011;18374;51.136;3.502;2023-02-26T15:29:04;1.50;;;0.63;;
31798;SDS011;18374;51.136;3.502;2023-02-26T15:31:42;2.72;;;0.70;;
31798;SDS011;18374;51.136;3.502;2023-02-26T15:36:49;2.45;;;0.57;;
31798;SDS011;18374;51.136;3.502;2023-02-26T15:39:21;6.97;;;0.90;;
31798;SDS011;18374;51.136;3.502;2023-02-26T15:41:50;1.10;;;0.60;;
31798;SDS011;18374;51.136;3.502;2023-02-26T15:44:24;1.08;;;0.45;;
31798;SDS011;18374;51.136;3.502;2023-02-26T15:46:58;3.40;;;0.70;;
31798;SDS011;18374;51.136;3.502;2023-02-26T15:49:47;5.93;;;0.50;;
31798;SDS011;18374;51.136;3.502;2023-02-26T15:52:16;1.95;;;0.52;;
31798;SDS011;18374;51.136;3.502;2023-02-26T15:54:49;2.33;;;0.70;;
31798;SDS011;18374;51.136;3.502;2023-02-26T15:57:21;5.05;;;0.85;;
31798;SDS011;18374;51.136;3.502;2023-02-26T15:59:51;1.92;;;0.65;;
31798;SDS011;18374;51.136;3.502;2023-02-26T16:02:29;1.85;;;0.60;;
31798;SDS011;18374;51.136;3.502;2023-02-26T16:04:57;1.20;;;0.47;;
31798;SDS011;18374;51.136;3.502;2023-02-26T16:07:28;0.60;;;0.50;;
31798;SDS011;18374;51.136;3.502;2023-02-26T16:09:56;0.47;;;0.45;;
31798;SDS011;18374;51.136;3.502;2023-02-26T16:12:42;2.20;;;0.85;;
31798;SDS011;18374;51.136;3.502;2023-02-26T16:15:18;3.47;;;0.70;;
31798;SDS011;18374;51.136;3.502;2023-02-26T16:17:57;1.80;;;0.85;;
31798;SDS011;18374;51.136;3.502;2023-02-26T16:20:30;3.95;;;0.70;;
31798;SDS011;18374;51.136;3.502;2023-02-26T16:23:15;2.95;;;0.93;;
31798;SDS011;18374;51.136;3.502;2023-02-26T16:25:55;3.33;;;0.75;;
31798;SDS011;18374;51.136;3.502;2023-02-26T16:28:30;2.35;;;0.70;;
31798;SDS011;18374;51.136;3.502;2023-02-26T16:31:06;0.85;;;0.60;;
31798;SDS011;18374;51.136;3.502;2023-02-26T16:33:54;0.47;;;0.30;;
31798;SDS011;18374;51.136;3.502;2023-02-26T16:36:35;4.27;;;0.80;;
31798;SDS011;18374;51.136;3.502;2023-02-26T16:41:34;1.45;;;0.57;;
31798;SDS011;18374;51.136;3.502;2023-02-26T16:44:33;2.22;;;0.80;;
31798;SDS011;18374;51.136;3.502;2023-02-26T16:46:56;1.60;;;0.50;;
31798;SDS011;18374;51.136;3.502;2023-02-26T16:49:26;5.95;;;1.10;;
31798;SDS011;18374;51.136;3.502;2023-02-26T16:51:59;1.35;;;0.63;;
31798;SDS011;18374;51.136;3.502;2023-02-26T16:54:37;6.45;;;0.68;;
31798;SDS011;18374;51.136;3.502;2023-02-26T16:59:47;4.22;;;0.80;;
31798;SDS011;18374;51.136;3.502;2023-02-26T17:02:20;0.93;;;0.50;;
31798;SDS011;18374;51.136;3.502;2023-02-26T17:04:56;3.55;;;0.60;;
31798;SDS011;18374;51.136;3.502;2023-02-26T17:07:48;0.95;;;0.60;;
31798;SDS011;18374;51.136;3.502;2023-02-26T17:10:37;1.42;;;0.50;;
31798;SDS011;18374;51.136;3.502;2023-02-26T17:13:15;2.50;;;0.75;;
31798;SDS011;18374;51.136;3.502;2023-02-26T17:15:51;2.63;;;0.50;;
31798;SDS011;18374;51.136;3.502;2023-02-26T17:18:20;2.17;;;0.80;;
31798;SDS011;18374;51.136;3.502;2023-02-26T17:20:48;2.28;;;0.77;;
31798;SDS011;18374;51.136;3.502;2023-02-26T17:23:17;4.25;;;1.00;;
31798;SDS011;18374;51.136;3.502;2023-02-26T17:25:48;4.65;;;1.20;;
31798;SDS011;18374;51.136;3.502;2023-02-26T17:28:21;1.83;;;0.73;;
31798;SDS011;18374;51.136;3.502;2023-02-26T17:30:55;2.40;;;0.93;;
31798;SDS011;18374;51.136;3.502;2023-02-26T17:33:23;1.13;;;0.73;;
31798;SDS011;18374;51.136;3.502;2023-02-26T17:35:51;4.90;;;1.00;;
31798;SDS011;18374;51.136;3.502;2023-02-26T17:38:23;1.40;;;0.70;;
31798;SDS011;18374;51.136;3.502;2023-02-26T17:40:51;2.40;;;1.02;;
31798;SDS011;18374;51.136;3.502;2023-02-26T17:43:21;0.93;;;0.70;;
31798;SDS011;18374;51.136;3.502;2023-02-26T17:45:49;3.42;;;1.13;;
31798;SDS011;18374;51.136;3.502;2023-02-26T17:48:18;5.30;;;0.73;;
31798;SDS011;18374;51.136;3.502;2023-02-26T17:50:47;1.25;;;0.60;;
31798;SDS011;18374;51.136;3.502;2023-02-26T17:53:17;3.53;;;1.13;;
31798;SDS011;18374;51.136;3.502;2023-02-26T17:55:48;4.00;;;1.10;;
31798;SDS011;18374;51.136;3.502;2023-02-26T17:58:21;6.65;;;0.98;;
31798;SDS011;18374;51.136;3.502;2023-02-26T18:00:54;1.73;;;0.80;;
31798;SDS011;18374;51.136;3.502;2023-02-26T18:03:22;2.05;;;0.90;;
31798;SDS011;18374;51.136;3.502;2023-02-26T18:05:50;3.70;;;1.27;;
31798;SDS011;18374;51.136;3.502;2023-02-26T18:08:25;1.98;;;1.00;;
31798;SDS011;18374;51.136;3.502;2023-02-26T18:10:56;1.83;;;0.90;;
31798;SDS011;18374;51.136;3.502;2023-02-26T18:13:25;2.45;;;1.00;;
31798;SDS011;18374;51.136;3.502;2023-02-26T18:15:54;2.95;;;1.23;;
31798;SDS011;18374;51.136;3.502;2023-02-26T18:18:24;2.33;;;0.90;;
31798;SDS011;18374;51.136;3.502;2023-02-26T18:20:52;3.92;;;1.63;;
31798;SDS011;18374;51.136;3.502;2023-02-26T18:23:20;3.67;;;1.40;;
31798;SDS011;18374;51.136;3.502;2023-02-26T18:25:49;2.17;;;1.40;;
31798;SDS011;18374;51.136;3.502;2023-02-26T18:28:23;5.88;;;1.58;;
31798;SDS011;18374;51.136;3.502;2023-02-26T18:30:54;5.70;;;1.83;;
31798;SDS011;18374;51.136;3.502;2023-02-26T18:33:23;7.80;;;1.42;;
31798;SDS011;18374;51.136;3.502;2023-02-26T18:35:53;6.63;;;1.55;;
31798;SDS011;18374;51.136;3.502;2023-02-26T18:38:26;2.60;;;1.20;;
31798;SDS011;18374;51.136;3.502;2023-02-26T18:40:55;4.10;;;1.20;;
31798;SDS011;18374;51.136;3.502;2023-02-26T18:43:24;2.78;;;1.00;;
31798;SDS011;18374;51.136;3.502;2023-02-26T18:45:51;5.07;;;1.50;;